createdAt,value
2019-03-03T00:04:55.499Z,98.80
2019-03-03T00:09:59.275Z,98.80
2019-03-03T00:15:02.976Z,98.90
2019-03-03T00:20:07.260Z,98.70
2019-03-03T00:25:11.824Z,98.80
2019-03-03T00:30:15.889Z,99.10
2019-03-03T00:35:19.578Z,98.50
2019-03-03T00:40:30.414Z,98.40
2019-03-03T00:45:42.240Z,98.50
2019-03-03T00:51:03.979Z,98.50
2019-03-03T00:56:20.735Z,98.90
2019-03-03T01:01:29.289Z,98.90
2019-03-03T01:06:40.066Z,98.60
2019-03-03T01:12:06.674Z,98.40
2019-03-03T01:17:17.113Z,98.60
2019-03-03T01:22:38.936Z,98.70
2019-03-03T01:27:42.590Z,98.70
2019-03-03T01:32:46.693Z,98.70
2019-03-03T01:37:50.470Z,98.60
2019-03-03T01:42:54.187Z,98.70
2019-03-03T01:47:58.213Z,98.70
2019-03-03T01:53:01.937Z,98.80
2019-03-03T01:58:05.715Z,98.90
2019-03-03T02:03:09.437Z,99.40
2019-03-03T02:08:13.489Z,99.50
2019-03-03T02:13:17.336Z,99.90
2019-03-03T02:18:21.019Z,99.90
2019-03-03T02:23:24.799Z,99.90
2019-03-03T02:28:28.838Z,99.90
2019-03-03T02:33:32.771Z,99.90
2019-03-03T02:38:36.861Z,99.80
2019-03-03T02:43:41.941Z,99.70
2019-03-03T02:48:45.607Z,99.90
2019-03-03T02:53:49.295Z,99.90
2019-03-03T02:58:53.316Z,99.90
2019-03-03T03:03:56.978Z,99.90
2019-03-03T03:09:12.684Z,99.90
2019-03-03T03:14:34.549Z,99.90
2019-03-03T03:19:57.864Z,99.90
2019-03-03T03:25:26.645Z,99.90
2019-03-03T03:31:01.885Z,99.80
2019-03-03T03:36:26.923Z,99.80
2019-03-03T03:41:36.078Z,99.60
2019-03-03T03:46:54.738Z,99.50
2019-03-03T03:52:16.518Z,99.20
2019-03-03T03:57:27.683Z,99.10
2019-03-03T04:02:50.658Z,99.80
2019-03-03T04:08:08.516Z,98.80
2019-03-03T04:13:29.791Z,99.00
2019-03-03T04:18:39.403Z,98.60
2019-03-03T04:24:00.331Z,98.70
2019-03-03T04:29:11.643Z,98.40
2019-03-03T04:34:20.350Z,98.10
2019-03-03T04:39:41.983Z,97.90
2019-03-03T04:44:56.711Z,97.70
2019-03-03T04:50:28.582Z,97.20
2019-03-03T04:55:54.626Z,96.80
2019-03-03T05:01:15.249Z,96.60
2019-03-03T05:06:37.217Z,96.60
2019-03-03T05:12:18.010Z,95.30
2019-03-03T05:17:28.779Z,95.20
2019-03-03T05:22:32.458Z,95.60
2019-03-03T05:27:36.226Z,95.30
2019-03-03T05:32:40.209Z,95.20
2019-03-03T05:37:43.922Z,94.80
2019-03-03T05:42:47.585Z,94.50
2019-03-03T05:47:51.271Z,94.20
2019-03-03T05:52:55.181Z,94.10
2019-03-03T05:57:59.067Z,93.90
2019-03-03T06:03:02.793Z,93.60
2019-03-03T06:08:06.504Z,93.60
2019-03-03T06:13:10.213Z,93.30
2019-03-03T06:18:14.204Z,93.30
2019-03-03T06:23:17.925Z,92.90
2019-03-03T06:28:21.630Z,92.80
2019-03-03T06:33:25.365Z,92.70
2019-03-03T06:38:29.320Z,92.40
2019-03-03T06:43:33.022Z,92.40
2019-03-03T06:48:36.776Z,92.70
2019-03-03T06:53:40.466Z,92.30
2019-03-03T06:58:44.182Z,92.20
2019-03-03T07:03:47.938Z,92.20
2019-03-03T07:08:51.681Z,92.30
2019-03-03T07:13:55.379Z,92.40
2019-03-03T07:18:59.766Z,92.50
2019-03-03T07:24:03.750Z,92.60
2019-03-03T07:29:07.427Z,92.20
2019-03-03T07:34:11.922Z,91.70
2019-03-03T07:39:19.469Z,91.70
2019-03-03T07:44:23.202Z,91.70
2019-03-03T07:49:26.942Z,91.70
2019-03-03T07:54:30.686Z,91.60
2019-03-03T07:59:34.447Z,91.30
2019-03-03T08:04:38.495Z,91.10
2019-03-03T08:09:42.507Z,90.70
2019-03-03T08:14:46.206Z,91.00
2019-03-03T08:19:49.915Z,90.70
2019-03-03T08:24:53.613Z,90.40
2019-03-03T08:29:57.707Z,90.20
2019-03-03T08:35:01.586Z,89.60
2019-03-03T08:40:05.822Z,88.00
2019-03-03T08:45:27.916Z,88.60
2019-03-03T08:50:41.931Z,87.00
2019-03-03T08:55:53.645Z,82.30
2019-03-03T09:01:03.819Z,80.30
2019-03-03T09:06:15.738Z,80.20
2019-03-03T09:11:26.231Z,80.00
2019-03-03T09:16:36.407Z,81.20
2019-03-03T09:21:56.010Z,81.50
2019-03-03T09:27:25.158Z,77.10
2019-03-03T09:32:46.981Z,78.40
2019-03-03T09:38:17.721Z,80.80
2019-03-03T09:43:27.565Z,83.70
2019-03-03T09:48:49.202Z,85.40
2019-03-03T09:54:11.090Z,87.00
2019-03-03T09:59:32.927Z,87.90
2019-03-03T10:05:07.761Z,88.10
2019-03-03T10:10:18.955Z,88.60
2019-03-03T10:15:42.577Z,88.10
2019-03-03T10:21:11.394Z,87.50
2019-03-03T10:26:25.636Z,87.50
2019-03-03T10:31:37.023Z,87.00
2019-03-03T10:36:57.173Z,86.20
2019-03-03T10:42:21.358Z,86.40
2019-03-03T10:47:43.155Z,84.90
2019-03-03T10:53:01.162Z,82.30
2019-03-03T10:58:36.677Z,84.00
2019-03-03T11:03:48.343Z,83.00
2019-03-03T11:09:01.701Z,80.60
2019-03-03T11:14:16.984Z,77.20
2019-03-03T11:19:30.651Z,75.70
2019-03-03T11:24:56.210Z,77.10
2019-03-03T11:30:16.720Z,76.70
2019-03-03T11:35:45.484Z,79.80
2019-03-03T11:40:57.120Z,82.50
2019-03-03T11:46:08.260Z,83.50
2019-03-03T11:51:16.959Z,84.00
2019-03-03T11:56:28.143Z,85.30
2019-03-03T12:01:49.691Z,83.40
2019-03-03T12:07:15.710Z,85.00
2019-03-03T12:12:29.498Z,85.80
2019-03-03T12:17:45.289Z,86.80
2019-03-03T12:22:57.246Z,85.10
2019-03-03T12:28:09.851Z,84.60
2019-03-03T12:33:32.317Z,82.90
2019-03-03T12:38:51.096Z,79.60
2019-03-03T12:44:12.328Z,79.50
2019-03-03T12:49:26.805Z,80.60
2019-03-03T12:54:42.939Z,82.40
2019-03-03T13:00:01.646Z,80.60
2019-03-03T13:05:23.308Z,82.00
2019-03-03T13:11:01.445Z,83.30
2019-03-03T13:16:17.396Z,83.10
2019-03-03T13:21:29.506Z,83.60
2019-03-03T13:26:43.257Z,84.90
2019-03-03T13:32:04.930Z,85.30
2019-03-03T13:37:16.810Z,84.70
2019-03-03T13:42:27.313Z,85.00
2019-03-03T13:47:31.316Z,85.20
2019-03-03T13:52:34.996Z,84.80
2019-03-03T13:57:38.774Z,85.10
2019-03-03T14:02:42.857Z,86.20
2019-03-03T14:07:46.607Z,85.80
2019-03-03T14:12:50.443Z,86.10
2019-03-03T14:17:54.169Z,86.80
2019-03-03T14:22:57.899Z,88.10
2019-03-03T14:28:01.575Z,89.00
2019-03-03T14:33:05.535Z,90.20
2019-03-03T14:38:09.643Z,90.40
2019-03-03T14:43:13.699Z,90.60
2019-03-03T14:48:18.035Z,90.80
2019-03-03T14:53:22.091Z,90.10
2019-03-03T14:58:25.853Z,89.50
2019-03-03T15:03:29.630Z,89.50
2019-03-03T15:08:33.603Z,89.90
2019-03-03T15:13:37.335Z,89.30
2019-03-03T15:18:41.609Z,88.90
2019-03-03T15:23:45.350Z,89.60
2019-03-03T15:28:49.134Z,89.00
2019-03-03T15:33:52.817Z,89.00
2019-03-03T15:38:56.522Z,88.30
2019-03-03T15:44:00.548Z,89.50
2019-03-03T15:49:04.323Z,90.10
2019-03-03T15:54:08.340Z,89.50
2019-03-03T15:59:12.305Z,90.00
2019-03-03T16:04:15.998Z,89.60
2019-03-03T16:09:19.664Z,90.00
2019-03-03T16:14:23.643Z,90.10
2019-03-03T16:19:27.374Z,90.20
2019-03-03T16:24:31.066Z,90.50
2019-03-03T16:29:34.805Z,91.00
2019-03-03T16:34:38.534Z,91.00
2019-03-03T16:39:42.516Z,91.40
2019-03-03T16:44:46.266Z,91.30
2019-03-03T16:49:50.373Z,91.40
2019-03-03T16:54:54.092Z,91.60
2019-03-03T16:59:57.750Z,91.80
2019-03-03T17:05:12.342Z,92.00
2019-03-03T17:10:16.287Z,91.90
2019-03-03T17:15:21.172Z,91.80
2019-03-03T17:20:25.083Z,91.80
2019-03-03T17:25:28.910Z,91.80
2019-03-03T17:30:32.947Z,91.80
2019-03-03T17:35:36.653Z,92.40
2019-03-03T17:40:40.429Z,92.10
2019-03-03T17:45:44.171Z,92.30
2019-03-03T17:50:47.843Z,92.50
2019-03-03T17:55:51.575Z,92.60
2019-03-03T18:00:55.259Z,92.70
2019-03-03T18:05:58.970Z,92.60
2019-03-03T18:11:02.708Z,92.80
2019-03-03T18:16:06.521Z,93.00
2019-03-03T18:21:10.219Z,93.10
2019-03-03T18:26:14.251Z,93.30
2019-03-03T18:31:17.976Z,93.30
2019-03-03T18:36:21.710Z,93.90
2019-03-03T18:41:25.379Z,93.70
2019-03-03T18:46:29.079Z,93.90
2019-03-03T18:51:32.816Z,93.90
2019-03-03T18:56:37.102Z,94.10
2019-03-03T19:01:41.986Z,93.90
2019-03-03T19:06:46.011Z,93.60
2019-03-03T19:11:49.856Z,93.50
2019-03-03T19:16:53.567Z,93.30
2019-03-03T19:21:57.940Z,93.10
2019-03-03T19:27:01.695Z,93.00
2019-03-03T19:32:05.514Z,92.70
2019-03-03T19:37:09.191Z,92.80
2019-03-03T19:42:12.898Z,93.00
2019-03-03T19:47:17.060Z,92.90
2019-03-03T19:52:20.761Z,92.70
2019-03-03T19:57:24.500Z,92.60
2019-03-03T20:02:28.314Z,92.50
2019-03-03T20:07:32.387Z,92.60
2019-03-03T20:12:36.661Z,92.70
2019-03-03T20:17:40.761Z,92.60
2019-03-03T20:22:44.781Z,92.80
2019-03-03T20:27:48.617Z,92.90
2019-03-03T20:32:52.375Z,92.60
2019-03-03T20:37:56.198Z,92.70
2019-03-03T20:43:00.238Z,92.60
2019-03-03T20:48:04.030Z,92.40
2019-03-03T20:53:07.791Z,92.90
2019-03-03T20:58:11.517Z,93.00
2019-03-03T21:03:15.345Z,93.10
2019-03-03T21:08:19.144Z,92.80
2019-03-03T21:13:22.914Z,92.90
2019-03-03T21:18:26.594Z,92.80
2019-03-03T21:23:30.562Z,92.80
2019-03-03T21:28:34.345Z,92.80
2019-03-03T21:33:38.188Z,92.70
2019-03-03T21:38:41.892Z,92.60
2019-03-03T21:43:45.629Z,92.30
2019-03-03T21:48:49.705Z,92.40
2019-03-03T21:53:53.467Z,92.50
2019-03-03T21:58:57.542Z,92.40
2019-03-03T22:04:01.289Z,92.20
2019-03-03T22:09:07.897Z,92.00
2019-03-03T22:14:11.638Z,91.50
2019-03-03T22:19:15.432Z,91.50
2019-03-03T22:24:19.121Z,91.30
2019-03-03T22:29:22.809Z,91.50
2019-03-03T22:34:26.520Z,91.50
2019-03-03T22:39:30.199Z,91.40
2019-03-03T22:44:33.945Z,91.30
2019-03-03T22:49:37.914Z,91.50
2019-03-03T22:54:41.612Z,91.40
2019-03-03T22:59:45.483Z,91.40
2019-03-03T23:05:15.727Z,91.50
2019-03-03T23:11:22.165Z,91.70
2019-03-03T23:17:05.051Z,91.60
2019-03-03T23:22:58.542Z,91.50
2019-03-03T23:28:02.278Z,91.60
2019-03-03T23:33:05.958Z,91.70
2019-03-03T23:38:09.939Z,91.70
2019-03-03T23:43:14.018Z,91.50
2019-03-03T23:48:18.026Z,91.60
2019-03-03T23:53:22.007Z,91.70
2019-03-03T23:58:25.665Z,91.30
